Aviation Digital Data Service (ADDS)

Output produced by METARs form (2146 UTC 24 March 2019)
found at http://www.aviationweather.gov/metar/data/
 
METAR text: SLCB 242100Z 13014KT 9999 TS FEW033 FEW036CB SCT090 BKN200 26/10 Q1020
Conditions at: SLCB (COCHABAMBA/JORGE, BO) observed 2100 UTC 24 March 2019
Temperature: 26.0°C (79°F)
Dewpoint: 10.0°C (50°F) [RH = 37%]
Pressure (altimeter): 30.12 inches Hg (1020.0 mb)
Winds: from the SE (130 degrees) at 16 MPH (14 knots; 7.2 m/s)
Visibility: 6 or more miles (10+ km)
Ceiling: 20000 feet AGL
Clouds: few clouds at 3300 feet AGL
few clouds at 3600 feet AGL
scattered clouds at 9000 feet AGL
broken clouds at 20000 feet AGL
Weather: TS  (thunderstorm)

METAR text: SLCB 242000Z 24007KT 9999 FEW033 FEW036CB BKN200 28/08 Q1020
Conditions at: SLCB (COCHABAMBA/JORGE, BO) observed 2000 UTC 24 March 2019
Temperature: 28.0°C (82°F)
Dewpoint: 8.0°C (46°F) [RH = 28%]
Pressure (altimeter): 30.12 inches Hg (1020.0 mb)
Winds: from the WSW (240 degrees) at 8 MPH (7 knots; 3.6 m/s)
Visibility: 6 or more miles (10+ km)
Ceiling: 20000 feet AGL
Clouds: few clouds at 3300 feet AGL
few clouds at 3600 feet AGL
broken clouds at 20000 feet AGL
Weather: no significant weather observed at this time

METAR text: SLCB 241900Z 24010KT 9999 FEW033 FEW036CB SCT200 29/08 Q1020
Conditions at: SLCB (COCHABAMBA/JORGE, BO) observed 1900 UTC 24 March 2019
Temperature: 29.0°C (84°F)
Dewpoint: 8.0°C (46°F) [RH = 27%]
Pressure (altimeter): 30.12 inches Hg (1020.0 mb)
Winds: from the WSW (240 degrees) at 12 MPH (10 knots; 5.1 m/s)
Visibility: 6 or more miles (10+ km)
Ceiling: at least 12,000 feet AGL
Clouds: few clouds at 3300 feet AGL
few clouds at 3600 feet AGL
scattered clouds at 20000 feet AGL
Weather: no significant weather observed at this time

METAR text: SLCB 241800Z 18006KT 9999 FEW033 FEW036CB 29/08 Q1022
Conditions at: SLCB (COCHABAMBA/JORGE, BO) observed 1800 UTC 24 March 2019
Temperature: 29.0°C (84°F)
Dewpoint: 8.0°C (46°F) [RH = 27%]
Pressure (altimeter): 30.18 inches Hg (1022.0 mb)
Winds: from the S (180 degrees) at 7 MPH (6 knots; 3.1 m/s)
Visibility: 6 or more miles (10+ km)
Ceiling: at least 12,000 feet AGL
Clouds: few clouds at 3300 feet AGL
few clouds at 3600 feet AGL
Weather: no significant weather observed at this time

METAR text: SLCB 241700Z 23003KT 9999 FEW033 27/07 Q1023
Conditions at: SLCB (COCHABAMBA/JORGE, BO) observed 1700 UTC 24 March 2019
Temperature: 27.0°C (81°F)
Dewpoint: 7.0°C (45°F) [RH = 28%]
Pressure (altimeter): 30.21 inches Hg (1023.0 mb)
Winds: from the SW (230 degrees) at 3 MPH (3 knots; 1.5 m/s)
Visibility: 6 or more miles (10+ km)
Ceiling: at least 12,000 feet AGL
Clouds: few clouds at 3300 feet AGL
Weather: no significant weather observed at this time

METAR text: SLCB 241600Z 23004KT 9999 FEW033 25/10 Q1025
Conditions at: SLCB (COCHABAMBA/JORGE, BO) observed 1600 UTC 24 March 2019
Temperature: 25.0°C (77°F)
Dewpoint: 10.0°C (50°F) [RH = 39%]
Pressure (altimeter): 30.27 inches Hg (1025.0 mb)
Winds: from the SW (230 degrees) at 5 MPH (4 knots; 2.1 m/s)
Visibility: 6 or more miles (10+ km)
Ceiling: at least 12,000 feet AGL
Clouds: few clouds at 3300 feet AGL
Weather: no significant weather observed at this time

METAR text: SLCB 241500Z 12004KT 9999 FEW033 23/10 Q1026
Conditions at: SLCB (COCHABAMBA/JORGE, BO) observed 1500 UTC 24 March 2019
Temperature: 23.0°C (73°F)
Dewpoint: 10.0°C (50°F) [RH = 44%]
Pressure (altimeter): 30.30 inches Hg (1026.0 mb)
Winds: from the ESE (120 degrees) at 5 MPH (4 knots; 2.1 m/s)
Visibility: 6 or more miles (10+ km)
Ceiling: at least 12,000 feet AGL
Clouds: few clouds at 3300 feet AGL
Weather: no significant weather observed at this time

METAR text: SLCB 241400Z 00000KT 9999 FEW033 21/10 Q1027
Conditions at: SLCB (COCHABAMBA/JORGE, BO) observed 1400 UTC 24 March 2019
Temperature: 21.0°C (70°F)
Dewpoint: 10.0°C (50°F) [RH = 49%]
Pressure (altimeter): 30.32 inches Hg (1027.0 mb)
Winds: calm
Visibility: 6 or more miles (10+ km)
Ceiling: at least 12,000 feet AGL
Clouds: few clouds at 3300 feet AGL
Weather: no significant weather observed at this time

METAR text: SLCB 241300Z 00000KT 9999 NSC 19/10 Q1027
Conditions at: SLCB (COCHABAMBA/JORGE, BO) observed 1300 UTC 24 March 2019
Temperature: 19.0°C (66°F)
Dewpoint: 10.0°C (50°F) [RH = 56%]
Pressure (altimeter): 30.32 inches Hg (1027.0 mb)
Winds: calm
Visibility: 6 or more miles (10+ km)
Ceiling: at least 12,000 feet AGL
Clouds: sky clear below 12,000 feet AGL
Weather: no significant weather observed at this time

METAR text: SLCB 241200Z 00000KT 9999 NSC 16/09 Q1027
Conditions at: SLCB (COCHABAMBA/JORGE, BO) observed 1200 UTC 24 March 2019
Temperature: 16.0°C (61°F)
Dewpoint: 9.0°C (48°F) [RH = 63%]
Pressure (altimeter): 30.32 inches Hg (1027.0 mb)
Winds: calm
Visibility: 6 or more miles (10+ km)
Ceiling: at least 12,000 feet AGL
Clouds: sky clear below 12,000 feet AGL
Weather: no significant weather observed at this time

METAR text: SLCB 241100Z 00000KT 9999 NSC 12/09 Q1026
Conditions at: SLCB (COCHABAMBA/JORGE, BO) observed 1100 UTC 24 March 2019
Temperature: 12.0°C (54°F)
Dewpoint: 9.0°C (48°F) [RH = 82%]
Pressure (altimeter): 30.30 inches Hg (1026.0 mb)
Winds: calm
Visibility: 6 or more miles (10+ km)
Ceiling: at least 12,000 feet AGL
Clouds: sky clear below 12,000 feet AGL
Weather: no significant weather observed at this time

METAR text: SLCB 241000Z 30003KT 9999 NSC 11/08 Q1025
Conditions at: SLCB (COCHABAMBA/JORGE, BO) observed 1000 UTC 24 March 2019
Temperature: 11.0°C (52°F)
Dewpoint: 8.0°C (46°F) [RH = 82%]
Pressure (altimeter): 30.27 inches Hg (1025.0 mb)
Winds: from the WNW (300 degrees) at 3 MPH (3 knots; 1.5 m/s)
Visibility: 6 or more miles (10+ km)
Ceiling: at least 12,000 feet AGL
Clouds: sky clear below 12,000 feet AGL
Weather: no significant weather observed at this time

METAR text: SLCB 240900Z 15003KT 9999 NSC 13/08 Q1024
Conditions at: SLCB (COCHABAMBA/JORGE, BO) observed 0900 UTC 24 March 2019
Temperature: 13.0°C (55°F)
Dewpoint: 8.0°C (46°F) [RH = 72%]
Pressure (altimeter): 30.24 inches Hg (1024.0 mb)
Winds: from the SSE (150 degrees) at 3 MPH (3 knots; 1.5 m/s)
Visibility: 6 or more miles (10+ km)
Ceiling: at least 12,000 feet AGL
Clouds: sky clear below 12,000 feet AGL
Weather: no significant weather observed at this time

METAR text: SLCB 240800Z 22003KT 9999 NSC 13/08 Q1024
Conditions at: SLCB (COCHABAMBA/JORGE, BO) observed 0800 UTC 24 March 2019
Temperature: 13.0°C (55°F)
Dewpoint: 8.0°C (46°F) [RH = 72%]
Pressure (altimeter): 30.24 inches Hg (1024.0 mb)
Winds: from the SW (220 degrees) at 3 MPH (3 knots; 1.5 m/s)
Visibility: 6 or more miles (10+ km)
Ceiling: at least 12,000 feet AGL
Clouds: sky clear below 12,000 feet AGL
Weather: no significant weather observed at this time

METAR text: SLCB 240700Z 08005KT 9999 NSC 15/08 Q1025
Conditions at: SLCB (COCHABAMBA/JORGE, BO) observed 0700 UTC 24 March 2019
Temperature: 15.0°C (59°F)
Dewpoint: 8.0°C (46°F) [RH = 63%]
Pressure (altimeter): 30.27 inches Hg (1025.0 mb)
Winds: from the E (80 degrees) at 6 MPH (5 knots; 2.6 m/s)
Visibility: 6 or more miles (10+ km)
Ceiling: at least 12,000 feet AGL
Clouds: sky clear below 12,000 feet AGL
Weather: no significant weather observed at this time

METAR text: SLCB 240600Z 16003KT 9999 NSC 15/07 Q1025
Conditions at: SLCB (COCHABAMBA/JORGE, BO) observed 0600 UTC 24 March 2019
Temperature: 15.0°C (59°F)
Dewpoint: 7.0°C (45°F) [RH = 59%]
Pressure (altimeter): 30.27 inches Hg (1025.0 mb)
Winds: from the SSE (160 degrees) at 3 MPH (3 knots; 1.5 m/s)
Visibility: 6 or more miles (10+ km)
Ceiling: at least 12,000 feet AGL
Clouds: sky clear below 12,000 feet AGL
Weather: no significant weather observed at this time

METAR text: SLCB 240500Z 22005KT 9999 NSC 16/08 Q1025
Conditions at: SLCB (COCHABAMBA/JORGE, BO) observed 0500 UTC 24 March 2019
Temperature: 16.0°C (61°F)
Dewpoint: 8.0°C (46°F) [RH = 59%]
Pressure (altimeter): 30.27 inches Hg (1025.0 mb)
Winds: from the SW (220 degrees) at 6 MPH (5 knots; 2.6 m/s)
Visibility: 6 or more miles (10+ km)
Ceiling: at least 12,000 feet AGL
Clouds: sky clear below 12,000 feet AGL
Weather: no significant weather observed at this time

METAR text: SLCB 240400Z 15003KT 9999 NSC 16/08 Q1025
Conditions at: SLCB (COCHABAMBA/JORGE, BO) observed 0400 UTC 24 March 2019
Temperature: 16.0°C (61°F)
Dewpoint: 8.0°C (46°F) [RH = 59%]
Pressure (altimeter): 30.27 inches Hg (1025.0 mb)
Winds: from the SSE (150 degrees) at 3 MPH (3 knots; 1.5 m/s)
Visibility: 6 or more miles (10+ km)
Ceiling: at least 12,000 feet AGL
Clouds: sky clear below 12,000 feet AGL
Weather: no significant weather observed at this time

METAR text: SLCB 240300Z 16008KT 9999 NSC 18/08 Q1024
Conditions at: SLCB (COCHABAMBA/JORGE, BO) observed 0300 UTC 24 March 2019
Temperature: 18.0°C (64°F)
Dewpoint: 8.0°C (46°F) [RH = 52%]
Pressure (altimeter): 30.24 inches Hg (1024.0 mb)
Winds: from the SSE (160 degrees) at 9 MPH (8 knots; 4.1 m/s)
Visibility: 6 or more miles (10+ km)
Ceiling: at least 12,000 feet AGL
Clouds: sky clear below 12,000 feet AGL
Weather: no significant weather observed at this time

METAR text: SLCB 240200Z 16011KT 9999 NSC 20/08 Q1024
Conditions at: SLCB (COCHABAMBA/JORGE, BO) observed 0200 UTC 24 March 2019
Temperature: 20.0°C (68°F)
Dewpoint: 8.0°C (46°F) [RH = 46%]
Pressure (altimeter): 30.24 inches Hg (1024.0 mb)
Winds: from the SSE (160 degrees) at 13 MPH (11 knots; 5.7 m/s)
Visibility: 6 or more miles (10+ km)
Ceiling: at least 12,000 feet AGL
Clouds: sky clear below 12,000 feet AGL
Weather: no significant weather observed at this time

METAR text: SLCB 240100Z 14013KT 9999 NSC 21/07 Q1023
Conditions at: SLCB (COCHABAMBA/JORGE, BO) observed 0100 UTC 24 March 2019
Temperature: 21.0°C (70°F)
Dewpoint: 7.0°C (45°F) [RH = 40%]
Pressure (altimeter): 30.21 inches Hg (1023.0 mb)
Winds: from the SE (140 degrees) at 15 MPH (13 knots; 6.7 m/s)
Visibility: 6 or more miles (10+ km)
Ceiling: at least 12,000 feet AGL
Clouds: sky clear below 12,000 feet AGL
Weather: no significant weather observed at this time

METAR text: SLCB 240000Z 13010KT 9999 FEW033 22/04 Q1022
Conditions at: SLCB (COCHABAMBA/JORGE, BO) observed 0000 UTC 24 March 2019
Temperature: 22.0°C (72°F)
Dewpoint: 4.0°C (39°F) [RH = 31%]
Pressure (altimeter): 30.18 inches Hg (1022.0 mb)
Winds: from the SE (130 degrees) at 12 MPH (10 knots; 5.1 m/s)
Visibility: 6 or more miles (10+ km)
Ceiling: at least 12,000 feet AGL
Clouds: few clouds at 3300 feet AGL
Weather: no significant weather observed at this time

METAR text: SLCB 232300Z VRB02KT 9999 FEW033 22/08 Q1021
Conditions at: SLCB (COCHABAMBA/JORGE, BO) observed 2300 UTC 23 March 2019
Temperature: 22.0°C (72°F)
Dewpoint: 8.0°C (46°F) [RH = 41%]
Pressure (altimeter): 30.15 inches Hg (1021.0 mb)
Winds: variable direction winds at 2 MPH (2 knots; 1.0 m/s)
Visibility: 6 or more miles (10+ km)
Ceiling: at least 12,000 feet AGL
Clouds: few clouds at 3300 feet AGL
Weather: no significant weather observed at this time

METAR text: SLCB 232200Z 29006KT 9999 FEW033 26/03 Q1020
Conditions at: SLCB (COCHABAMBA/JORGE, BO) observed 2200 UTC 23 March 2019
Temperature: 26.0°C (79°F)
Dewpoint: 3.0°C (37°F) [RH = 23%]
Pressure (altimeter): 30.12 inches Hg (1020.0 mb)
Winds: from the WNW (290 degrees) at 7 MPH (6 knots; 3.1 m/s)
Visibility: 6 or more miles (10+ km)
Ceiling: at least 12,000 feet AGL
Clouds: few clouds at 3300 feet AGL
Weather: no significant weather observed at this time

METAR text: SLCB 232100Z 26005KT 9999 FEW033 28/05 Q1020
Conditions at: SLCB (COCHABAMBA/JORGE, BO) observed 2100 UTC 23 March 2019
Temperature: 28.0°C (82°F)
Dewpoint: 5.0°C (41°F) [RH = 23%]
Pressure (altimeter): 30.12 inches Hg (1020.0 mb)
Winds: from the W (260 degrees) at 6 MPH (5 knots; 2.6 m/s)
Visibility: 6 or more miles (10+ km)
Ceiling: at least 12,000 feet AGL
Clouds: few clouds at 3300 feet AGL
Weather: no significant weather observed at this time

METAR text: SLCB 232000Z 28003KT 9999 FEW036 29/05 Q1021
Conditions at: SLCB (COCHABAMBA/JORGE, BO) observed 2000 UTC 23 March 2019
Temperature: 29.0°C (84°F)
Dewpoint: 5.0°C (41°F) [RH = 22%]
Pressure (altimeter): 30.15 inches Hg (1021.0 mb)
Winds: from the W (280 degrees) at 3 MPH (3 knots; 1.5 m/s)
Visibility: 6 or more miles (10+ km)
Ceiling: at least 12,000 feet AGL
Clouds: few clouds at 3600 feet AGL
Weather: no significant weather observed at this time

METAR text: SLCB 231900Z 20003KT 9999 FEW036 28/07 Q1022
Conditions at: SLCB (COCHABAMBA/JORGE, BO) observed 1900 UTC 23 March 2019
Temperature: 28.0°C (82°F)
Dewpoint: 7.0°C (45°F) [RH = 27%]
Pressure (altimeter): 30.18 inches Hg (1022.0 mb)
Winds: from the SSW (200 degrees) at 3 MPH (3 knots; 1.5 m/s)
Visibility: 6 or more miles (10+ km)
Ceiling: at least 12,000 feet AGL
Clouds: few clouds at 3600 feet AGL
Weather: no significant weather observed at this time

METAR text: SLCB 231800Z 23003KT 9999 FEW036 28/08 Q1023
Conditions at: SLCB (COCHABAMBA/JORGE, BO) observed 1800 UTC 23 March 2019
Temperature: 28.0°C (82°F)
Dewpoint: 8.0°C (46°F) [RH = 28%]
Pressure (altimeter): 30.21 inches Hg (1023.0 mb)
Winds: from the SW (230 degrees) at 3 MPH (3 knots; 1.5 m/s)
Visibility: 6 or more miles (10+ km)
Ceiling: at least 12,000 feet AGL
Clouds: few clouds at 3600 feet AGL
Weather: no significant weather observed at this time

METAR text: SLCB 231700Z 17003KT 9999 FEW036 25/08 Q1024
Conditions at: SLCB (COCHABAMBA/JORGE, BO) observed 1700 UTC 23 March 2019
Temperature: 25.0°C (77°F)
Dewpoint: 8.0°C (46°F) [RH = 34%]
Pressure (altimeter): 30.24 inches Hg (1024.0 mb)
Winds: from the S (170 degrees) at 3 MPH (3 knots; 1.5 m/s)
Visibility: 6 or more miles (10+ km)
Ceiling: at least 12,000 feet AGL
Clouds: few clouds at 3600 feet AGL
Weather: no significant weather observed at this time

METAR text: SLCB 231600Z 23005KT 9999 FEW036 25/08 Q1026
Conditions at: SLCB (COCHABAMBA/JORGE, BO) observed 1600 UTC 23 March 2019
Temperature: 25.0°C (77°F)
Dewpoint: 8.0°C (46°F) [RH = 34%]
Pressure (altimeter): 30.30 inches Hg (1026.0 mb)
Winds: from the SW (230 degrees) at 6 MPH (5 knots; 2.6 m/s)
Visibility: 6 or more miles (10+ km)
Ceiling: at least 12,000 feet AGL
Clouds: few clouds at 3600 feet AGL
Weather: no significant weather observed at this time

METAR text: SLCB 231500Z 25005KT 9999 FEW033 23/08 Q1027
Conditions at: SLCB (COCHABAMBA/JORGE, BO) observed 1500 UTC 23 March 2019
Temperature: 23.0°C (73°F)
Dewpoint: 8.0°C (46°F) [RH = 38%]
Pressure (altimeter): 30.32 inches Hg (1027.0 mb)
Winds: from the WSW (250 degrees) at 6 MPH (5 knots; 2.6 m/s)
Visibility: 6 or more miles (10+ km)
Ceiling: at least 12,000 feet AGL
Clouds: few clouds at 3300 feet AGL
Weather: no significant weather observed at this time

METAR text: SLCB 231400Z 19004KT 9999 FEW027 21/10 Q1028
Conditions at: SLCB (COCHABAMBA/JORGE, BO) observed 1400 UTC 23 March 2019
Temperature: 21.0°C (70°F)
Dewpoint: 10.0°C (50°F) [RH = 49%]
Pressure (altimeter): 30.35 inches Hg (1028.0 mb)
Winds: from the S (190 degrees) at 5 MPH (4 knots; 2.1 m/s)
Visibility: 6 or more miles (10+ km)
Ceiling: at least 12,000 feet AGL
Clouds: few clouds at 2700 feet AGL
Weather: no significant weather observed at this time

METAR text: SLCB 231300Z 15003KT 9999 FEW027 19/09 Q1028
Conditions at: SLCB (COCHABAMBA/JORGE, BO) observed 1300 UTC 23 March 2019
Temperature: 19.0°C (66°F)
Dewpoint: 9.0°C (48°F) [RH = 52%]
Pressure (altimeter): 30.35 inches Hg (1028.0 mb)
Winds: from the SSE (150 degrees) at 3 MPH (3 knots; 1.5 m/s)
Visibility: 6 or more miles (10+ km)
Ceiling: at least 12,000 feet AGL
Clouds: few clouds at 2700 feet AGL
Weather: no significant weather observed at this time

METAR text: SLCB 231200Z 12005KT 9999 FEW027 SCT050 17/08 Q1028
Conditions at: SLCB (COCHABAMBA/JORGE, BO) observed 1200 UTC 23 March 2019
Temperature: 17.0°C (63°F)
Dewpoint: 8.0°C (46°F) [RH = 55%]
Pressure (altimeter): 30.35 inches Hg (1028.0 mb)
Winds: from the ESE (120 degrees) at 6 MPH (5 knots; 2.6 m/s)
Visibility: 6 or more miles (10+ km)
Ceiling: at least 12,000 feet AGL
Clouds: few clouds at 2700 feet AGL
scattered clouds at 5000 feet AGL
Weather: no significant weather observed at this time

METAR text: SLCB 231100Z 14003KT 9999 FEW027 SCT050 15/09 Q1027
Conditions at: SLCB (COCHABAMBA/JORGE, BO) observed 1100 UTC 23 March 2019
Temperature: 15.0°C (59°F)
Dewpoint: 9.0°C (48°F) [RH = 67%]
Pressure (altimeter): 30.32 inches Hg (1027.0 mb)
Winds: from the SE (140 degrees) at 3 MPH (3 knots; 1.5 m/s)
Visibility: 6 or more miles (10+ km)
Ceiling: at least 12,000 feet AGL
Clouds: few clouds at 2700 feet AGL
scattered clouds at 5000 feet AGL
Weather: no significant weather observed at this time

METAR text: SLCB 231000Z 12005KT 9999 SCT036 BKN200 15/09 Q1026
Conditions at: SLCB (COCHABAMBA/JORGE, BO) observed 1000 UTC 23 March 2019
Temperature: 15.0°C (59°F)
Dewpoint: 9.0°C (48°F) [RH = 67%]
Pressure (altimeter): 30.30 inches Hg (1026.0 mb)
Winds: from the ESE (120 degrees) at 6 MPH (5 knots; 2.6 m/s)
Visibility: 6 or more miles (10+ km)
Ceiling: 20000 feet AGL
Clouds: scattered clouds at 3600 feet AGL
broken clouds at 20000 feet AGL
Weather: no significant weather observed at this time

Forecast for: SLCB (COCHABAMBA/JORGE, BO)
Text: TAF SLCB 241600Z 2418/2518 24010KT 9999 FEW033 TX29/2419Z TN14/2510Z
Forecast period: 1800 to 2300 UTC 24 March 2019
Forecast type: FROM: standard forecast or significant change
Winds: from the WSW (240 degrees) at 12 MPH (10 knots; 5.1 m/s)
Visibility: 6 or more miles 10+ km)
Ceiling: at least 12,000 feet AGL
Clouds: few clouds at 3300 feet AGL
Weather: no significant weather forecast for this period
Text: TEMPO 2421/2423 06012KT FEW033CB
Forecast period: 2100 to 2300 UTC 24 March 2019
Forecast type: TEMPORARY: The following changes expected for less than half the time period
Winds: from the ENE (60 degrees) at 14 MPH (12 knots; 6.2 m/s)
Visibility: missing
Ceiling: at least 12,000 feet AGL
Clouds: few clouds at 3300 feet AGL
Weather: no significant weather forecast for this period
Text: BECMG 2423/2501 14010KT FEW027 FEW030CB SCT070
Forecast period: 2300 UTC 24 March 2019 to 0500 UTC 25 March 2019
Forecast type: BECOMING: Conditions expected to become as follows by 0100 UTC 25 March 2019
Winds: from the SE (140 degrees) at 12 MPH (10 knots; 5.1 m/s)
Visibility: 6 or more miles 10+ km)
Ceiling: at least 12,000 feet AGL
Clouds: few clouds at 2700 feet AGL
few clouds at 3000 feet AGL
scattered clouds at 7000 feet AGL
Weather: no significant weather forecast for this period
Text: PROB30
Forecast period: 0200 to 0400 UTC 25 March 2019
Forecast type: TEMPORARY: The following changes expected for less than half the time period
Visibility: missing
Ceiling: unknown
Clouds: missing
Weather: VCTS  (thunderstorm in vicinity)
Text: TEMPO 2502/2504 VCTS
Forecast period: 0500 to 1800 UTC 25 March 2019
Forecast type: BECOMING: Conditions expected to become as follows by 0600 UTC 25 March 2019
Winds: calm
Visibility: 6 or more miles 10+ km)
Ceiling: 7000 feet AGL
Clouds: few clouds at 2700 feet AGL
broken clouds at 7000 feet AGL
Weather: no significant weather forecast for this period